sensor_id;sensor_type;location;lat;lon;timestamp;pressure;altitude;pressure_sealevel;temperature;humidity
50282;BME280;36176;51.506;10.272;2023-08-21T00:00:42;100149.38;;;20.53;98.74
50282;BME280;36176;51.506;10.272;2023-08-21T00:03:10;100152.59;;;20.58;99.02
50282;BME280;36176;51.506;10.272;2023-08-21T00:05:37;100155.06;;;20.62;99.04
50282;BME280;36176;51.506;10.272;2023-08-21T00:08:05;100147.00;;;20.62;98.52
50282;BME280;36176;51.506;10.272;2023-08-21T00:10:32;100161.81;;;20.67;98.48
50282;BME280;36176;51.506;10.272;2023-08-21T00:12:59;100159.97;;;20.68;98.52
50282;BME280;36176;51.506;10.272;2023-08-21T00:15:26;100167.94;;;20.69;97.59
50282;BME280;36176;51.506;10.272;2023-08-21T00:17:53;100162.75;;;20.66;98.01
50282;BME280;36176;51.506;10.272;2023-08-21T00:20:20;100160.81;;;20.68;98.56
50282;BME280;36176;51.506;10.272;2023-08-21T00:22:47;100146.25;;;20.71;98.64
50282;BME280;36176;51.506;10.272;2023-08-21T00:25:14;100151.28;;;20.75;98.13
50282;BME280;36176;51.506;10.272;2023-08-21T00:27:42;100154.59;;;20.79;98.25
50282;BME280;36176;51.506;10.272;2023-08-21T00:30:09;100156.94;;;20.84;97.94
50282;BME280;36176;51.506;10.272;2023-08-21T00:32:36;100153.72;;;20.90;97.52
50282;BME280;36176;51.506;10.272;2023-08-21T00:35:04;100139.78;;;20.85;97.52
50282;BME280;36176;51.506;10.272;2023-08-21T00:37:31;100143.19;;;20.75;98.04
50282;BME280;36176;51.506;10.272;2023-08-21T00:39:58;100143.44;;;20.72;98.28
50282;BME280;36176;51.506;10.272;2023-08-21T00:42:25;100138.44;;;20.79;97.76
50282;BME280;36176;51.506;10.272;2023-08-21T00:44:53;100136.72;;;20.89;97.65
50282;BME280;36176;51.506;10.272;2023-08-21T00:47:20;100135.38;;;20.95;96.97
50282;BME280;36176;51.506;10.272;2023-08-21T00:49:47;100131.81;;;20.94;96.81
50282;BME280;36176;51.506;10.272;2023-08-21T00:52:15;100131.09;;;20.92;96.82
50282;BME280;36176;51.506;10.272;2023-08-21T00:54:42;100143.59;;;20.93;96.63
50282;BME280;36176;51.506;10.272;2023-08-21T00:57:10;100146.03;;;20.96;96.23
50282;BME280;36176;51.506;10.272;2023-08-21T00:59:39;100142.22;;;20.99;96.45
50282;BME280;36176;51.506;10.272;2023-08-21T01:02:06;100137.00;;;20.97;95.76
50282;BME280;36176;51.506;10.272;2023-08-21T01:04:33;100137.47;;;20.91;96.02
50282;BME280;36176;51.506;10.272;2023-08-21T01:07:00;100130.00;;;20.84;96.15
50282;BME280;36176;51.506;10.272;2023-08-21T01:09:34;100129.25;;;20.81;95.35
50282;BME280;36176;51.506;10.272;2023-08-21T01:12:17;100133.31;;;20.76;95.77
50282;BME280;36176;51.506;10.272;2023-08-21T01:14:59;100135.63;;;20.69;96.53
50282;BME280;36176;51.506;10.272;2023-08-21T01:17:29;100129.25;;;20.70;95.82
50282;BME280;36176;51.506;10.272;2023-08-21T01:19:56;100133.66;;;20.71;95.91
50282;BME280;36176;51.506;10.272;2023-08-21T01:22:27;100133.88;;;20.68;96.47
50282;BME280;36176;51.506;10.272;2023-08-21T01:25:03;100134.53;;;20.72;96.48
50282;BME280;36176;51.506;10.272;2023-08-21T01:27:30;100133.53;;;20.73;96.04
50282;BME280;36176;51.506;10.272;2023-08-21T01:29:59;100132.44;;;20.75;96.16
50282;BME280;36176;51.506;10.272;2023-08-21T01:32:34;100134.88;;;20.67;96.09
50282;BME280;36176;51.506;10.272;2023-08-21T01:35:04;100138.69;;;20.65;96.55
50282;BME280;36176;51.506;10.272;2023-08-21T01:37:32;100135.00;;;20.66;95.83
50282;BME280;36176;51.506;10.272;2023-08-21T01:40:00;100130.09;;;20.59;96.61
50282;BME280;36176;51.506;10.272;2023-08-21T01:42:27;100128.84;;;20.52;97.10
50282;BME280;36176;51.506;10.272;2023-08-21T01:44:54;100132.34;;;20.42;97.39
50282;BME280;36176;51.506;10.272;2023-08-21T01:47:21;100125.13;;;20.31;97.72
50282;BME280;36176;51.506;10.272;2023-08-21T01:49:48;100127.31;;;20.26;98.14
50282;BME280;36176;51.506;10.272;2023-08-21T01:52:18;100122.16;;;20.23;98.81
50282;BME280;36176;51.506;10.272;2023-08-21T01:54:45;100129.63;;;20.19;98.91
50282;BME280;36176;51.506;10.272;2023-08-21T01:57:12;100128.25;;;20.13;99.62
50282;BME280;36176;51.506;10.272;2023-08-21T01:59:40;100134.44;;;20.03;100.00
50282;BME280;36176;51.506;10.272;2023-08-21T02:02:07;100135.66;;;19.98;100.00
50282;BME280;36176;51.506;10.272;2023-08-21T02:04:35;100137.13;;;20.03;99.57
50282;BME280;36176;51.506;10.272;2023-08-21T02:07:02;100131.88;;;20.01;99.91
50282;BME280;36176;51.506;10.272;2023-08-21T02:09:30;100127.81;;;19.95;100.00
50282;BME280;36176;51.506;10.272;2023-08-21T02:11:57;100135.44;;;20.02;99.46
50282;BME280;36176;51.506;10.272;2023-08-21T02:14:24;100126.50;;;20.01;99.72
50282;BME280;36176;51.506;10.272;2023-08-21T02:16:51;100124.03;;;19.98;99.67
50282;BME280;36176;51.506;10.272;2023-08-21T02:19:18;100123.44;;;19.94;99.79
50282;BME280;36176;51.506;10.272;2023-08-21T02:21:46;100122.44;;;19.95;99.63
50282;BME280;36176;51.506;10.272;2023-08-21T02:24:13;100127.38;;;20.02;99.24
50282;BME280;36176;51.506;10.272;2023-08-21T02:26:40;100133.25;;;20.07;98.83
50282;BME280;36176;51.506;10.272;2023-08-21T02:29:07;100125.41;;;20.04;99.68
50282;BME280;36176;51.506;10.272;2023-08-21T02:31:35;100117.81;;;19.97;100.00
50282;BME280;36176;51.506;10.272;2023-08-21T02:34:02;100123.59;;;20.04;99.18
50282;BME280;36176;51.506;10.272;2023-08-21T02:36:29;100119.22;;;20.14;99.04
50282;BME280;36176;51.506;10.272;2023-08-21T02:38:56;100117.25;;;20.16;98.84
50282;BME280;36176;51.506;10.272;2023-08-21T02:41:33;100127.44;;;20.24;98.25
50282;BME280;36176;51.506;10.272;2023-08-21T02:44:01;100127.69;;;20.32;97.83
50282;BME280;36176;51.506;10.272;2023-08-21T02:49:04;100119.88;;;20.40;98.19
50282;BME280;36176;51.506;10.272;2023-08-21T02:51:31;100122.44;;;20.42;96.99
50282;BME280;36176;51.506;10.272;2023-08-21T02:53:58;100144.84;;;20.43;97.32
50282;BME280;36176;51.506;10.272;2023-08-21T02:56:25;100146.66;;;20.42;96.93
50282;BME280;36176;51.506;10.272;2023-08-21T02:58:52;100139.69;;;20.39;97.16
50282;BME280;36176;51.506;10.272;2023-08-21T03:01:19;100125.28;;;20.40;97.04
50282;BME280;36176;51.506;10.272;2023-08-21T03:03:46;100118.03;;;20.41;97.20
50282;BME280;36176;51.506;10.272;2023-08-21T03:06:15;100119.63;;;20.44;96.73
50282;BME280;36176;51.506;10.272;2023-08-21T03:08:42;100118.19;;;20.51;95.97
50282;BME280;36176;51.506;10.272;2023-08-21T03:11:09;100133.22;;;20.53;95.93
50282;BME280;36176;51.506;10.272;2023-08-21T03:13:36;100135.31;;;20.50;96.00
50282;BME280;36176;51.506;10.272;2023-08-21T03:16:04;100143.41;;;20.50;95.83
50282;BME280;36176;51.506;10.272;2023-08-21T03:18:32;100122.22;;;20.45;96.07
50282;BME280;36176;51.506;10.272;2023-08-21T03:20:59;100126.72;;;20.45;96.77
50282;BME280;36176;51.506;10.272;2023-08-21T03:23:26;100127.59;;;20.45;96.47
50282;BME280;36176;51.506;10.272;2023-08-21T03:25:53;100122.97;;;20.47;96.79
50282;BME280;36176;51.506;10.272;2023-08-21T03:28:20;100120.13;;;20.49;97.31
50282;BME280;36176;51.506;10.272;2023-08-21T03:30:47;100118.06;;;20.52;97.20
50282;BME280;36176;51.506;10.272;2023-08-21T03:33:14;100114.50;;;20.52;96.33
50282;BME280;36176;51.506;10.272;2023-08-21T03:35:42;100123.47;;;20.52;96.45
50282;BME280;36176;51.506;10.272;2023-08-21T03:38:09;100127.09;;;20.51;95.79
50282;BME280;36176;51.506;10.272;2023-08-21T03:40:37;100127.47;;;20.47;96.17
50282;BME280;36176;51.506;10.272;2023-08-21T03:43:04;100115.59;;;20.38;96.85
50282;BME280;36176;51.506;10.272;2023-08-21T03:45:32;100120.25;;;20.36;96.56
50282;BME280;36176;51.506;10.272;2023-08-21T03:47:59;100125.63;;;20.36;96.41
50282;BME280;36176;51.506;10.272;2023-08-21T03:50:26;100126.22;;;20.28;97.06
50282;BME280;36176;51.506;10.272;2023-08-21T03:52:53;100123.16;;;20.22;97.58
50282;BME280;36176;51.506;10.272;2023-08-21T03:55:20;100128.38;;;20.23;97.75
50282;BME280;36176;51.506;10.272;2023-08-21T03:57:47;100117.50;;;20.25;97.67
50282;BME280;36176;51.506;10.272;2023-08-21T04:00:15;100115.69;;;20.25;97.96
50282;BME280;36176;51.506;10.272;2023-08-21T04:02:42;100116.56;;;20.26;97.24
50282;BME280;36176;51.506;10.272;2023-08-21T04:05:09;100108.34;;;20.27;97.38
50282;BME280;36176;51.506;10.272;2023-08-21T04:07:37;100114.94;;;20.23;98.06
50282;BME280;36176;51.506;10.272;2023-08-21T04:10:04;100123.88;;;20.24;97.83
50282;BME280;36176;51.506;10.272;2023-08-21T04:12:31;100119.34;;;20.24;97.44
50282;BME280;36176;51.506;10.272;2023-08-21T04:14:59;100114.72;;;20.26;98.09
50282;BME280;36176;51.506;10.272;2023-08-21T04:17:26;100120.22;;;20.25;98.10
50282;BME280;36176;51.506;10.272;2023-08-21T04:19:55;100122.28;;;20.21;97.62
50282;BME280;36176;51.506;10.272;2023-08-21T04:22:22;100118.13;;;20.17;98.28
50282;BME280;36176;51.506;10.272;2023-08-21T04:24:50;100116.63;;;20.13;97.97
50282;BME280;36176;51.506;10.272;2023-08-21T04:27:17;100115.88;;;20.11;98.32
50282;BME280;36176;51.506;10.272;2023-08-21T04:29:47;100117.97;;;20.07;98.34
50282;BME280;36176;51.506;10.272;2023-08-21T04:32:14;100124.44;;;20.05;97.66
50282;BME280;36176;51.506;10.272;2023-08-21T04:34:41;100136.63;;;19.97;97.15
50282;BME280;36176;51.506;10.272;2023-08-21T04:37:08;100142.59;;;19.90;97.33
50282;BME280;36176;51.506;10.272;2023-08-21T04:39:35;100137.56;;;19.85;97.05
50282;BME280;36176;51.506;10.272;2023-08-21T04:42:03;100136.19;;;19.80;97.80
50282;BME280;36176;51.506;10.272;2023-08-21T04:44:30;100142.66;;;19.77;97.41
50282;BME280;36176;51.506;10.272;2023-08-21T04:46:57;100134.81;;;19.74;97.69
50282;BME280;36176;51.506;10.272;2023-08-21T04:49:48;100144.22;;;19.68;98.13
50282;BME280;36176;51.506;10.272;2023-08-21T04:52:16;100147.81;;;19.67;98.31
50282;BME280;36176;51.506;10.272;2023-08-21T04:54:43;100157.72;;;19.67;98.90
50282;BME280;36176;51.506;10.272;2023-08-21T04:57:13;100160.50;;;19.65;99.33
50282;BME280;36176;51.506;10.272;2023-08-21T04:59:40;100157.72;;;19.67;100.00
50282;BME280;36176;51.506;10.272;2023-08-21T05:02:07;100168.47;;;19.67;100.00
50282;BME280;36176;51.506;10.272;2023-08-21T05:04:36;100165.59;;;19.70;100.00
50282;BME280;36176;51.506;10.272;2023-08-21T05:07:04;100163.41;;;19.75;99.84
50282;BME280;36176;51.506;10.272;2023-08-21T05:09:32;100162.13;;;19.81;99.75
50282;BME280;36176;51.506;10.272;2023-08-21T05:11:59;100176.97;;;19.97;99.67
50282;BME280;36176;51.506;10.272;2023-08-21T05:14:26;100173.56;;;20.31;99.71
50282;BME280;36176;51.506;10.272;2023-08-21T05:16:53;100171.59;;;20.68;98.41
50282;BME280;36176;51.506;10.272;2023-08-21T05:19:21;100170.91;;;21.00;95.85
50282;BME280;36176;51.506;10.272;2023-08-21T05:21:48;100177.22;;;21.33;95.14
50282;BME280;36176;51.506;10.272;2023-08-21T05:24:15;100176.06;;;21.80;93.44
50282;BME280;36176;51.506;10.272;2023-08-21T05:26:42;100178.78;;;22.13;90.00
50282;BME280;36176;51.506;10.272;2023-08-21T05:29:09;100181.47;;;22.45;86.91
50282;BME280;36176;51.506;10.272;2023-08-21T05:31:36;100174.41;;;22.75;85.74
50282;BME280;36176;51.506;10.272;2023-08-21T05:34:03;100174.50;;;23.15;84.63
50282;BME280;36176;51.506;10.272;2023-08-21T05:36:30;100186.31;;;23.54;82.38
50282;BME280;36176;51.506;10.272;2023-08-21T05:38:57;100182.84;;;24.03;80.50
50282;BME280;36176;51.506;10.272;2023-08-21T05:41:25;100181.28;;;24.39;79.85
50282;BME280;36176;51.506;10.272;2023-08-21T05:43:52;100182.28;;;24.57;76.17
50282;BME280;36176;51.506;10.272;2023-08-21T05:46:19;100185.22;;;24.83;76.57
50282;BME280;36176;51.506;10.272;2023-08-21T05:48:46;100186.53;;;25.17;73.44
50282;BME280;36176;51.506;10.272;2023-08-21T05:51:13;100189.53;;;25.51;72.70
50282;BME280;36176;51.506;10.272;2023-08-21T05:53:41;100188.47;;;25.89;72.02
50282;BME280;36176;51.506;10.272;2023-08-21T05:56:08;100186.91;;;26.23;69.34
50282;BME280;36176;51.506;10.272;2023-08-21T05:58:35;100186.44;;;26.63;67.42
50282;BME280;36176;51.506;10.272;2023-08-21T06:01:06;100177.03;;;26.84;64.13
50282;BME280;36176;51.506;10.272;2023-08-21T06:03:34;100177.56;;;27.13;64.91
50282;BME280;36176;51.506;10.272;2023-08-21T06:06:01;100183.56;;;27.68;65.48
50282;BME280;36176;51.506;10.272;2023-08-21T06:08:28;100184.19;;;27.88;61.94
50282;BME280;36176;51.506;10.272;2023-08-21T06:10:55;100179.97;;;28.26;60.69
50282;BME280;36176;51.506;10.272;2023-08-21T06:13:22;100179.78;;;28.19;60.00
50282;BME280;36176;51.506;10.272;2023-08-21T06:15:49;100182.00;;;28.24;58.36
50282;BME280;36176;51.506;10.272;2023-08-21T06:18:16;100188.97;;;28.35;59.38
50282;BME280;36176;51.506;10.272;2023-08-21T06:20:43;100183.97;;;29.04;59.37
50282;BME280;36176;51.506;10.272;2023-08-21T06:23:10;100188.41;;;29.61;58.39
50282;BME280;36176;51.506;10.272;2023-08-21T06:25:38;100187.41;;;30.16;53.89
50282;BME280;36176;51.506;10.272;2023-08-21T06:28:05;100188.53;;;30.30;54.50
50282;BME280;36176;51.506;10.272;2023-08-21T06:30:32;100184.84;;;30.61;53.89
50282;BME280;36176;51.506;10.272;2023-08-21T06:32:59;100182.69;;;30.71;50.62
50282;BME280;36176;51.506;10.272;2023-08-21T06:35:26;100183.63;;;30.78;51.55
50282;BME280;36176;51.506;10.272;2023-08-21T06:37:53;100185.13;;;31.04;49.57
50282;BME280;36176;51.506;10.272;2023-08-21T06:40:20;100182.47;;;31.40;49.22
50282;BME280;36176;51.506;10.272;2023-08-21T06:42:48;100183.66;;;31.67;49.59
50282;BME280;36176;51.506;10.272;2023-08-21T06:45:15;100193.53;;;31.47;47.08
50282;BME280;36176;51.506;10.272;2023-08-21T06:47:42;100184.13;;;31.71;48.65
50282;BME280;36176;51.506;10.272;2023-08-21T06:50:10;100183.22;;;32.21;44.96
50282;BME280;36176;51.506;10.272;2023-08-21T06:52:37;100180.47;;;32.21;44.29
50282;BME280;36176;51.506;10.272;2023-08-21T06:55:05;100185.69;;;32.38;45.08
50282;BME280;36176;51.506;10.272;2023-08-21T06:57:32;100185.03;;;32.57;45.48
50282;BME280;36176;51.506;10.272;2023-08-21T06:59:59;100190.13;;;32.89;46.83
50282;BME280;36176;51.506;10.272;2023-08-21T07:02:26;100193.53;;;33.19;45.58
50282;BME280;36176;51.506;10.272;2023-08-21T07:04:53;100182.78;;;33.24;43.84
50282;BME280;36176;51.506;10.272;2023-08-21T07:07:21;100185.03;;;33.14;44.70
50282;BME280;36176;51.506;10.272;2023-08-21T07:09:49;100182.19;;;33.35;45.08
50282;BME280;36176;51.506;10.272;2023-08-21T07:12:16;100183.91;;;33.36;43.72
50282;BME280;36176;51.506;10.272;2023-08-21T07:14:43;100183.44;;;33.26;43.27
50282;BME280;36176;51.506;10.272;2023-08-21T07:17:11;100184.19;;;33.55;42.47
50282;BME280;36176;51.506;10.272;2023-08-21T07:19:38;100187.31;;;33.93;43.27
50282;BME280;36176;51.506;10.272;2023-08-21T07:22:05;100195.47;;;34.75;40.34
50282;BME280;36176;51.506;10.272;2023-08-21T07:24:32;100186.50;;;35.26;39.68
50282;BME280;36176;51.506;10.272;2023-08-21T07:26:59;100177.75;;;35.42;39.13
50282;BME280;36176;51.506;10.272;2023-08-21T07:29:29;100178.13;;;35.52;38.07
50282;BME280;36176;51.506;10.272;2023-08-21T07:31:57;100178.31;;;35.57;38.44
50282;BME280;36176;51.506;10.272;2023-08-21T07:34:24;100183.22;;;35.62;37.95
50282;BME280;36176;51.506;10.272;2023-08-21T07:36:51;100172.97;;;35.76;38.83
50282;BME280;36176;51.506;10.272;2023-08-21T07:39:18;100172.47;;;35.86;38.87
50282;BME280;36176;51.506;10.272;2023-08-21T07:41:45;100165.69;;;35.88;36.56
50282;BME280;36176;51.506;10.272;2023-08-21T07:44:13;100175.88;;;35.88;36.38
50282;BME280;36176;51.506;10.272;2023-08-21T07:46:40;100179.44;;;35.95;38.27
50282;BME280;36176;51.506;10.272;2023-08-21T07:49:07;100184.03;;;35.69;37.86
50282;BME280;36176;51.506;10.272;2023-08-21T07:51:34;100185.19;;;35.87;38.05
50282;BME280;36176;51.506;10.272;2023-08-21T07:54:01;100178.50;;;36.08;39.04
50282;BME280;36176;51.506;10.272;2023-08-21T07:56:28;100180.91;;;36.29;37.47
50282;BME280;36176;51.506;10.272;2023-08-21T07:58:56;100178.16;;;36.29;37.70
50282;BME280;36176;51.506;10.272;2023-08-21T08:01:24;100179.44;;;36.27;37.05
50282;BME280;36176;51.506;10.272;2023-08-21T08:03:51;100180.88;;;36.36;37.22
50282;BME280;36176;51.506;10.272;2023-08-21T08:06:18;100176.44;;;36.60;36.63
50282;BME280;36176;51.506;10.272;2023-08-21T08:08:45;100172.00;;;36.59;37.58
50282;BME280;36176;51.506;10.272;2023-08-21T08:11:12;100175.63;;;36.78;37.51
50282;BME280;36176;51.506;10.272;2023-08-21T08:13:39;100171.28;;;36.89;36.39
50282;BME280;36176;51.506;10.272;2023-08-21T08:16:06;100175.03;;;37.19;34.64
50282;BME280;36176;51.506;10.272;2023-08-21T08:18:34;100174.34;;;36.99;37.79
50282;BME280;36176;51.506;10.272;2023-08-21T08:21:01;100180.00;;;37.47;36.75
50282;BME280;36176;51.506;10.272;2023-08-21T08:23:28;100173.03;;;37.27;35.68
50282;BME280;36176;51.506;10.272;2023-08-21T08:25:55;100176.56;;;37.15;35.87
50282;BME280;36176;51.506;10.272;2023-08-21T08:28:23;100171.66;;;36.92;38.19
50282;BME280;36176;51.506;10.272;2023-08-21T08:30:50;100166.41;;;36.66;35.48
50282;BME280;36176;51.506;10.272;2023-08-21T08:33:17;100154.31;;;36.67;35.61
50282;BME280;36176;51.506;10.272;2023-08-21T08:35:45;100157.91;;;36.67;37.23
50282;BME280;36176;51.506;10.272;2023-08-21T08:38:12;100152.81;;;36.71;36.25
50282;BME280;36176;51.506;10.272;2023-08-21T08:40:44;100157.16;;;36.53;36.29
50282;BME280;36176;51.506;10.272;2023-08-21T08:43:12;100160.22;;;36.45;37.33
50282;BME280;36176;51.506;10.272;2023-08-21T08:45:40;100158.75;;;36.11;38.29
50282;BME280;36176;51.506;10.272;2023-08-21T08:48:08;100158.00;;;36.54;37.50
50282;BME280;36176;51.506;10.272;2023-08-21T08:50:37;100153.94;;;36.81;37.60
50282;BME280;36176;51.506;10.272;2023-08-21T08:53:06;100154.59;;;37.02;36.84
50282;BME280;36176;51.506;10.272;2023-08-21T08:55:43;100148.56;;;37.12;36.52
50282;BME280;36176;51.506;10.272;2023-08-21T08:58:13;100148.47;;;37.55;36.04
50282;BME280;36176;51.506;10.272;2023-08-21T09:00:40;100143.94;;;37.24;35.54
50282;BME280;36176;51.506;10.272;2023-08-21T09:03:07;100142.63;;;37.45;35.58
50282;BME280;36176;51.506;10.272;2023-08-21T09:05:34;100144.91;;;37.48;34.93
50282;BME280;36176;51.506;10.272;2023-08-21T09:08:12;100142.50;;;37.52;34.44
50282;BME280;36176;51.506;10.272;2023-08-21T09:10:40;100141.06;;;36.94;35.52
50282;BME280;36176;51.506;10.272;2023-08-21T09:13:12;100151.19;;;36.56;36.82
50282;BME280;36176;51.506;10.272;2023-08-21T09:15:41;100141.91;;;36.51;35.53
50282;BME280;36176;51.506;10.272;2023-08-21T09:18:10;100148.91;;;36.78;35.97
50282;BME280;36176;51.506;10.272;2023-08-21T09:20:38;100149.91;;;36.34;36.41
50282;BME280;36176;51.506;10.272;2023-08-21T09:23:05;100145.34;;;35.44;36.26
50282;BME280;36176;51.506;10.272;2023-08-21T09:25:39;100155.44;;;34.59;37.32
50282;BME280;36176;51.506;10.272;2023-08-21T09:28:08;100151.22;;;34.23;38.15
50282;BME280;36176;51.506;10.272;2023-08-21T09:30:49;100148.44;;;34.09;38.52
50282;BME280;36176;51.506;10.272;2023-08-21T09:33:18;100142.13;;;33.47;39.59
50282;BME280;36176;51.506;10.272;2023-08-21T09:35:46;100145.84;;;32.14;41.44
50282;BME280;36176;51.506;10.272;2023-08-21T09:38:13;100151.13;;;31.43;42.58
50282;BME280;36176;51.506;10.272;2023-08-21T09:40:42;100153.22;;;31.11;45.48
50282;BME280;36176;51.506;10.272;2023-08-21T09:43:10;100157.47;;;30.99;45.31
50282;BME280;36176;51.506;10.272;2023-08-21T09:45:37;100155.47;;;31.22;43.42
50282;BME280;36176;51.506;10.272;2023-08-21T09:48:05;100144.88;;;31.34;44.36
50282;BME280;36176;51.506;10.272;2023-08-21T09:50:33;100156.66;;;31.64;45.12
50282;BME280;36176;51.506;10.272;2023-08-21T09:53:01;100146.00;;;32.34;45.97
50282;BME280;36176;51.506;10.272;2023-08-21T09:55:29;100139.47;;;32.91;43.23
50282;BME280;36176;51.506;10.272;2023-08-21T09:58:01;100142.97;;;33.48;41.12
50282;BME280;36176;51.506;10.272;2023-08-21T10:00:30;100141.44;;;33.94;42.30
50282;BME280;36176;51.506;10.272;2023-08-21T10:03:03;100135.13;;;34.26;39.47
50282;BME280;36176;51.506;10.272;2023-08-21T10:05:31;100134.94;;;34.61;41.86
50282;BME280;36176;51.506;10.272;2023-08-21T10:08:01;100125.53;;;35.09;42.60
50282;BME280;36176;51.506;10.272;2023-08-21T10:10:36;100121.06;;;35.14;35.59
50282;BME280;36176;51.506;10.272;2023-08-21T10:13:04;100128.13;;;34.57;36.63
50282;BME280;36176;51.506;10.272;2023-08-21T10:15:32;100121.38;;;34.33;39.17
50282;BME280;36176;51.506;10.272;2023-08-21T10:18:21;100125.56;;;33.96;37.28
50282;BME280;36176;51.506;10.272;2023-08-21T10:20:48;100122.41;;;34.05;37.93
50282;BME280;36176;51.506;10.272;2023-08-21T10:23:30;100114.81;;;34.47;39.44
50282;BME280;36176;51.506;10.272;2023-08-21T10:26:01;100115.25;;;34.58;36.11
50282;BME280;36176;51.506;10.272;2023-08-21T10:29:02;100113.56;;;34.63;37.79
50282;BME280;36176;51.506;10.272;2023-08-21T10:31:38;100110.56;;;34.71;38.79
50282;BME280;36176;51.506;10.272;2023-08-21T10:34:07;100102.13;;;34.66;41.09
50282;BME280;36176;51.506;10.272;2023-08-21T10:41:39;100099.72;;;35.48;39.70
50282;BME280;36176;51.506;10.272;2023-08-21T10:44:07;100093.25;;;35.74;37.12
50282;BME280;36176;51.506;10.272;2023-08-21T10:46:51;100100.47;;;35.75;36.38
50282;BME280;36176;51.506;10.272;2023-08-21T10:49:18;100097.50;;;35.32;37.23
50282;BME280;36176;51.506;10.272;2023-08-21T10:51:45;100103.59;;;34.49;38.79
50282;BME280;36176;51.506;10.272;2023-08-21T10:54:13;100092.00;;;34.20;39.44
50282;BME280;36176;51.506;10.272;2023-08-21T10:56:40;100099.59;;;34.31;40.89
50282;BME280;36176;51.506;10.272;2023-08-21T10:59:09;100096.06;;;35.09;40.26
50282;BME280;36176;51.506;10.272;2023-08-21T11:01:44;100103.06;;;35.19;39.92
50282;BME280;36176;51.506;10.272;2023-08-21T11:04:12;100101.28;;;34.66;39.89
50282;BME280;36176;51.506;10.272;2023-08-21T11:06:39;100107.63;;;34.26;40.98
50282;BME280;36176;51.506;10.272;2023-08-21T11:09:12;100111.25;;;34.20;39.25
50282;BME280;36176;51.506;10.272;2023-08-21T11:11:40;100103.75;;;33.74;40.70
50282;BME280;36176;51.506;10.272;2023-08-21T11:14:07;100107.41;;;33.40;40.86
50282;BME280;36176;51.506;10.272;2023-08-21T11:16:34;100104.91;;;32.62;42.04
50282;BME280;36176;51.506;10.272;2023-08-21T11:19:04;100103.59;;;32.08;43.35
50282;BME280;36176;51.506;10.272;2023-08-21T11:21:31;100096.03;;;32.10;44.53
50282;BME280;36176;51.506;10.272;2023-08-21T11:23:58;100102.81;;;32.71;43.41
50282;BME280;36176;51.506;10.272;2023-08-21T11:26:26;100097.44;;;33.19;41.92
50282;BME280;36176;51.506;10.272;2023-08-21T11:28:55;100098.94;;;33.28;44.25
50282;BME280;36176;51.506;10.272;2023-08-21T11:31:23;100097.84;;;33.84;41.34
50282;BME280;36176;51.506;10.272;2023-08-21T11:33:50;100101.47;;;33.91;42.08
50282;BME280;36176;51.506;10.272;2023-08-21T11:36:18;100104.00;;;33.99;39.83
50282;BME280;36176;51.506;10.272;2023-08-21T11:38:58;100094.50;;;33.88;40.62
50282;BME280;36176;51.506;10.272;2023-08-21T11:41:26;100085.63;;;34.33;42.25
50282;BME280;36176;51.506;10.272;2023-08-21T11:44:01;100090.00;;;34.94;40.08
50282;BME280;36176;51.506;10.272;2023-08-21T11:46:28;100086.72;;;35.24;39.44
50282;BME280;36176;51.506;10.272;2023-08-21T11:48:56;100090.25;;;35.38;41.96
50282;BME280;36176;51.506;10.272;2023-08-21T11:51:23;100082.94;;;35.18;41.24
50282;BME280;36176;51.506;10.272;2023-08-21T11:53:50;100093.03;;;35.31;41.33
50282;BME280;36176;51.506;10.272;2023-08-21T11:56:17;100076.97;;;35.21;39.55
50282;BME280;36176;51.506;10.272;2023-08-21T11:58:46;100080.94;;;34.73;38.28
50282;BME280;36176;51.506;10.272;2023-08-21T12:01:18;100080.66;;;34.88;40.93
50282;BME280;36176;51.506;10.272;2023-08-21T12:03:45;100080.00;;;35.06;39.46
50282;BME280;36176;51.506;10.272;2023-08-21T12:06:13;100084.28;;;35.47;40.30
50282;BME280;36176;51.506;10.272;2023-08-21T12:08:40;100080.84;;;35.52;39.04
50282;BME280;36176;51.506;10.272;2023-08-21T12:11:08;100081.50;;;34.95;39.19
50282;BME280;36176;51.506;10.272;2023-08-21T12:13:35;100074.72;;;34.98;38.44
50282;BME280;36176;51.506;10.272;2023-08-21T12:16:04;100074.44;;;35.20;39.17
50282;BME280;36176;51.506;10.272;2023-08-21T12:18:33;100075.16;;;35.47;38.34
50282;BME280;36176;51.506;10.272;2023-08-21T12:21:00;100068.25;;;35.69;36.57
50282;BME280;36176;51.506;10.272;2023-08-21T12:23:28;100071.22;;;35.99;36.92
50282;BME280;36176;51.506;10.272;2023-08-21T12:25:55;100058.00;;;36.33;35.37
50282;BME280;36176;51.506;10.272;2023-08-21T12:28:22;100062.34;;;36.48;33.79
50282;BME280;36176;51.506;10.272;2023-08-21T12:30:49;100063.91;;;36.62;37.01
50282;BME280;36176;51.506;10.272;2023-08-21T12:33:16;100066.19;;;36.22;36.28
50282;BME280;36176;51.506;10.272;2023-08-21T12:35:50;100062.44;;;35.46;37.48
50282;BME280;36176;51.506;10.272;2023-08-21T12:38:18;100071.63;;;34.75;38.81
50282;BME280;36176;51.506;10.272;2023-08-21T12:40:45;100069.97;;;34.34;40.91
50282;BME280;36176;51.506;10.272;2023-08-21T12:43:12;100064.91;;;34.10;42.13
50282;BME280;36176;51.506;10.272;2023-08-21T12:45:39;100074.59;;;34.00;41.82
50282;BME280;36176;51.506;10.272;2023-08-21T12:48:06;100076.28;;;33.94;42.02
50282;BME280;36176;51.506;10.272;2023-08-21T12:50:34;100069.69;;;33.68;41.71
50282;BME280;36176;51.506;10.272;2023-08-21T12:53:01;100072.81;;;33.45;42.83